createdAt,value
2022-10-25T00:03:12.961Z,65
2022-10-25T00:04:52.732Z,66
2022-10-25T00:06:32.522Z,66
2022-10-25T00:08:12.261Z,66
2022-10-25T00:09:52.053Z,66
2022-10-25T00:13:11.577Z,65
2022-10-25T00:14:51.304Z,65
2022-10-25T00:16:31.063Z,66
2022-10-25T00:18:10.869Z,66
2022-10-25T00:19:50.608Z,66
2022-10-25T00:23:10.139Z,65
2022-10-25T00:26:29.660Z,66
2022-10-25T00:28:09.423Z,65
2022-10-25T00:29:49.232Z,65
2022-10-25T00:33:08.714Z,66
2022-10-25T00:34:48.475Z,65
2022-10-25T00:36:28.327Z,66
2022-10-25T00:39:47.764Z,66
2022-10-25T00:43:07.308Z,65
2022-10-25T00:44:47.102Z,66
2022-10-25T00:46:26.861Z,66
2022-10-25T00:48:06.601Z,65
2022-10-25T00:49:46.379Z,65
2022-10-25T00:53:05.869Z,65
2022-10-25T00:54:45.634Z,65
2022-10-25T00:56:25.408Z,65
2022-10-25T00:59:44.921Z,65
2022-10-25T01:03:04.469Z,65
2022-10-25T01:04:44.227Z,64
2022-10-25T01:06:23.985Z,65
2022-10-25T01:08:03.760Z,64
2022-10-25T01:09:43.523Z,65
2022-10-25T01:13:03.046Z,65
2022-10-25T01:14:42.796Z,65
2022-10-25T01:16:22.572Z,65
2022-10-25T01:18:02.338Z,65
2022-10-25T01:19:42.098Z,65
2022-10-25T01:21:21.866Z,65
2022-10-25T01:23:01.620Z,65
2022-10-25T01:24:41.387Z,65
2022-10-25T01:26:21.163Z,64
2022-10-25T01:28:00.927Z,64
2022-10-25T01:29:40.686Z,65
2022-10-25T01:31:20.571Z,64
2022-10-25T01:33:00.207Z,64
2022-10-25T01:34:39.990Z,65
2022-10-25T01:36:19.737Z,65
2022-10-25T01:37:59.500Z,65
2022-10-25T01:39:39.263Z,65
2022-10-25T01:41:19.054Z,65
2022-10-25T01:42:58.785Z,65
2022-10-25T01:44:38.558Z,65
2022-10-25T01:46:18.328Z,65
2022-10-25T01:47:58.121Z,65
2022-10-25T01:52:57.376Z,64
2022-10-25T01:54:37.143Z,65
2022-10-25T01:56:16.912Z,65
2022-10-25T01:57:56.672Z,65
2022-10-25T01:59:36.430Z,65
2022-10-25T02:01:16.197Z,64
2022-10-25T02:02:55.960Z,65
2022-10-25T02:04:35.721Z,64
2022-10-25T02:06:15.522Z,65
2022-10-25T02:07:55.332Z,65
2022-10-25T02:09:35.018Z,65
2022-10-25T02:12:54.538Z,65
2022-10-25T02:14:34.314Z,64
2022-10-25T02:16:14.123Z,65
2022-10-25T02:17:53.869Z,65
2022-10-25T02:19:33.591Z,64
2022-10-25T02:21:13.362Z,64
2022-10-25T02:22:53.130Z,64
2022-10-25T02:26:12.652Z,64
2022-10-25T02:27:52.434Z,64
2022-10-25T02:29:32.188Z,64
2022-10-25T02:31:11.936Z,64
2022-10-25T02:36:11.235Z,64
2022-10-25T02:37:51.002Z,64
2022-10-25T02:39:30.771Z,64
2022-10-25T02:41:10.523Z,64
2022-10-25T02:42:50.302Z,64
2022-10-25T02:46:09.850Z,63
2022-10-25T02:47:49.591Z,64
2022-10-25T02:49:29.342Z,63
2022-10-25T02:52:48.931Z,64
2022-10-25T02:54:28.656Z,64
2022-10-25T02:56:08.442Z,64
2022-10-25T02:57:48.187Z,64
2022-10-25T02:59:27.972Z,64
2022-10-25T03:02:47.472Z,64
2022-10-25T03:04:27.216Z,64
2022-10-25T03:06:06.979Z,64
2022-10-25T03:07:46.744Z,64
2022-10-25T03:09:26.639Z,64
2022-10-25T03:11:06.284Z,64
2022-10-25T03:12:46.037Z,64
2022-10-25T03:14:25.812Z,64
2022-10-25T03:16:05.559Z,64
2022-10-25T03:17:45.333Z,64
2022-10-25T03:19:25.143Z,64
2022-10-25T03:22:44.636Z,64
2022-10-25T03:24:24.391Z,63
2022-10-25T03:26:04.158Z,63
2022-10-25T03:27:43.925Z,64
2022-10-25T03:29:23.701Z,63
2022-10-25T03:31:03.515Z,64
2022-10-25T03:32:43.201Z,64
2022-10-25T03:34:22.975Z,63
2022-10-25T03:36:02.734Z,63
2022-10-25T03:37:42.494Z,63
2022-10-25T03:39:22.293Z,63
2022-10-25T03:42:41.793Z,63
2022-10-25T03:44:21.545Z,63
2022-10-25T03:46:01.331Z,63
2022-10-25T03:47:41.095Z,63
2022-10-25T03:49:20.850Z,63
2022-10-25T03:52:40.382Z,63
2022-10-25T03:54:20.150Z,63
2022-10-25T03:55:59.906Z,63
2022-10-25T03:57:39.659Z,63
2022-10-25T03:59:19.436Z,63
2022-10-25T04:02:38.963Z,63
2022-10-25T04:04:18.764Z,63
2022-10-25T04:05:58.514Z,62
2022-10-25T04:07:38.255Z,63
2022-10-25T04:09:18.031Z,63
2022-10-25T04:12:37.581Z,63
2022-10-25T04:14:17.352Z,63
2022-10-25T04:15:57.125Z,63
2022-10-25T04:17:36.840Z,63
2022-10-25T04:20:56.427Z,62
2022-10-25T04:22:36.135Z,62
2022-10-25T04:24:15.923Z,62
2022-10-25T04:25:55.650Z,62
2022-10-25T04:27:35.430Z,62
2022-10-25T04:29:15.172Z,62
2022-10-25T04:30:54.953Z,62
2022-10-25T04:32:34.719Z,62
2022-10-25T04:34:14.502Z,62
2022-10-25T04:35:54.244Z,62
2022-10-25T04:37:34.020Z,62
2022-10-25T04:39:13.798Z,62
2022-10-25T04:42:33.381Z,62
2022-10-25T04:44:13.058Z,62
2022-10-25T04:45:52.816Z,62
2022-10-25T04:47:32.644Z,62
2022-10-25T04:49:12.348Z,62
2022-10-25T04:52:31.867Z,62
2022-10-25T04:54:11.721Z,61
2022-10-25T04:55:51.407Z,61
2022-10-25T04:57:31.164Z,61
2022-10-25T04:59:10.928Z,61
2022-10-25T05:02:30.462Z,61
2022-10-25T05:05:49.996Z,60
2022-10-25T05:07:29.749Z,61
2022-10-25T05:09:09.518Z,61
2022-10-25T05:10:49.290Z,60
2022-10-25T05:12:29.050Z,60
2022-10-25T05:14:08.801Z,60
2022-10-25T05:15:48.586Z,60
2022-10-25T05:17:28.397Z,60
2022-10-25T05:19:08.100Z,61
2022-10-25T05:20:47.875Z,60
2022-10-25T05:22:27.630Z,60
2022-10-25T05:24:07.408Z,60
2022-10-25T05:25:47.149Z,60
2022-10-25T05:27:26.924Z,60
2022-10-25T05:29:06.682Z,60
2022-10-25T05:32:26.213Z,59
2022-10-25T05:34:05.969Z,59
2022-10-25T05:35:45.741Z,59
2022-10-25T05:37:25.534Z,60
2022-10-25T05:42:24.825Z,60
2022-10-25T05:44:04.579Z,59
2022-10-25T05:45:44.330Z,60
2022-10-25T05:47:24.135Z,60
2022-10-25T05:49:03.859Z,60
2022-10-25T05:52:23.382Z,60
2022-10-25T05:54:03.142Z,60
2022-10-25T05:55:42.905Z,60
2022-10-25T05:57:22.671Z,60
2022-10-25T05:59:02.439Z,60
2022-10-25T06:02:21.968Z,60
2022-10-25T06:04:01.724Z,60
2022-10-25T06:05:41.496Z,59
2022-10-25T06:07:21.253Z,60
2022-10-25T06:09:01.020Z,59
2022-10-25T06:12:20.612Z,60
2022-10-25T06:14:00.327Z,59
2022-10-25T06:15:40.085Z,60
2022-10-25T06:17:19.869Z,60
2022-10-25T06:18:59.605Z,61
2022-10-25T06:22:19.251Z,61
2022-10-25T06:23:58.895Z,61
2022-10-25T06:25:38.654Z,62
2022-10-25T06:28:58.191Z,63
2022-10-25T06:32:17.816Z,65
2022-10-25T06:33:57.485Z,66
2022-10-25T06:35:37.235Z,67
2022-10-25T06:37:17.004Z,68
2022-10-25T06:38:56.780Z,70
2022-10-25T06:42:16.291Z,72
2022-10-25T06:43:56.068Z,72
2022-10-25T06:45:35.832Z,71
2022-10-25T06:47:15.585Z,70
2022-10-25T06:48:55.388Z,70
2022-10-25T06:50:35.115Z,72
2022-10-25T06:52:14.874Z,74
2022-10-25T06:53:54.637Z,77
2022-10-25T06:55:34.413Z,80
2022-10-25T06:57:14.186Z,83
2022-10-25T06:58:54.008Z,86
2022-10-25T07:02:13.565Z,84
2022-10-25T07:03:53.228Z,82
2022-10-25T07:05:33.105Z,82
2022-10-25T07:07:12.745Z,83
2022-10-25T07:08:52.516Z,86
2022-10-25T07:12:12.056Z,89
2022-10-25T07:13:51.831Z,88
2022-10-25T07:15:31.573Z,88
2022-10-25T07:17:11.342Z,91
2022-10-25T07:18:51.108Z,91
2022-10-25T07:22:10.640Z,92
2022-10-25T07:23:50.423Z,92
2022-10-25T07:25:30.161Z,91
2022-10-25T07:27:09.954Z,92
2022-10-25T07:28:49.691Z,92
2022-10-25T07:32:09.273Z,93
2022-10-25T07:33:48.983Z,92
2022-10-25T07:35:28.740Z,91
2022-10-25T07:37:08.534Z,92
2022-10-25T07:40:28.030Z,100
2022-10-25T07:42:07.831Z,100
2022-10-25T07:43:47.568Z,97
2022-10-25T07:45:27.386Z,95
2022-10-25T07:47:07.092Z,94
2022-10-25T07:48:46.857Z,94
2022-10-25T07:52:06.411Z,90
2022-10-25T07:53:46.175Z,90
2022-10-25T07:55:25.905Z,90
2022-10-25T07:57:05.712Z,90
2022-10-25T07:58:45.435Z,94
2022-10-25T08:02:04.958Z,100
2022-10-25T08:03:44.729Z,100
2022-10-25T08:05:24.490Z,100
2022-10-25T08:07:04.257Z,100
2022-10-25T08:08:44.024Z,100
2022-10-25T08:10:23.790Z,100
2022-10-25T08:12:03.561Z,100
2022-10-25T08:13:43.311Z,100
2022-10-25T08:15:23.070Z,100
2022-10-25T08:17:03.002Z,100
2022-10-25T08:20:22.517Z,100
2022-10-25T08:22:02.287Z,100
2022-10-25T08:23:41.922Z,100
2022-10-25T08:25:21.795Z,100
2022-10-25T08:27:01.582Z,100
2022-10-25T08:28:41.274Z,100
2022-10-25T08:30:21.060Z,100
2022-10-25T08:32:00.824Z,100
2022-10-25T08:33:40.495Z,100
2022-10-25T08:35:20.291Z,100
2022-10-25T08:37:00.022Z,100
2022-10-25T08:38:39.911Z,100
2022-10-25T08:40:19.578Z,100
2022-10-25T08:41:59.358Z,100
2022-10-25T08:43:39.066Z,100
2022-10-25T08:45:18.851Z,100
2022-10-25T08:48:38.484Z,100
2022-10-25T08:50:18.237Z,100
2022-10-25T08:51:57.900Z,100
2022-10-25T08:53:37.713Z,100
2022-10-25T08:55:17.446Z,100
2022-10-25T08:56:57.209Z,100
2022-10-25T08:58:37.048Z,100
2022-10-25T09:00:16.728Z,100
2022-10-25T09:01:56.550Z,100
2022-10-25T09:03:36.349Z,100
2022-10-25T09:05:16.072Z,100
2022-10-25T09:06:55.874Z,100
2022-10-25T09:08:35.619Z,100
2022-10-25T09:11:55.083Z,100
2022-10-25T09:15:14.583Z,100
2022-10-25T09:16:54.421Z,100
2022-10-25T09:18:34.179Z,100
2022-10-25T09:21:53.648Z,100
2022-10-25T09:23:33.444Z,100
2022-10-25T09:25:13.175Z,100
2022-10-25T09:26:52.942Z,100
2022-10-25T09:28:32.700Z,100
2022-10-25T09:31:52.224Z,100
2022-10-25T09:33:32.003Z,100
2022-10-25T09:35:11.764Z,100
2022-10-25T09:36:51.624Z,100
2022-10-25T09:38:31.416Z,100
2022-10-25T09:40:11.083Z,100
2022-10-25T09:41:50.935Z,100
2022-10-25T09:45:10.515Z,100
2022-10-25T09:46:50.162Z,100
2022-10-25T09:48:29.865Z,100
2022-10-25T09:50:09.635Z,100
2022-10-25T09:51:49.402Z,100
2022-10-25T09:55:09.006Z,100
2022-10-25T09:56:48.699Z,100
2022-10-25T09:58:28.557Z,100
2022-10-25T10:01:48.023Z,100
2022-10-25T10:03:27.854Z,100
2022-10-25T10:05:07.601Z,100
2022-10-25T10:06:47.401Z,100
2022-10-25T10:08:27.100Z,100
2022-10-25T10:13:26.327Z,100
2022-10-25T10:15:06.176Z,100
2022-10-25T10:16:45.992Z,100
2022-10-25T10:18:25.638Z,97
2022-10-25T10:20:05.462Z,100
2022-10-25T10:21:45.257Z,100
2022-10-25T10:23:24.918Z,100
2022-10-25T10:25:04.680Z,100
2022-10-25T10:26:44.475Z,100
2022-10-25T10:28:24.243Z,100
2022-10-25T10:31:43.745Z,100
2022-10-25T10:33:23.514Z,100
2022-10-25T10:35:03.254Z,99
2022-10-25T10:36:43.064Z,99
2022-10-25T10:38:22.872Z,100
2022-10-25T10:40:02.558Z,99
2022-10-25T10:41:42.317Z,98
2022-10-25T10:43:22.107Z,98
2022-10-25T10:45:01.872Z,100
2022-10-25T10:46:41.615Z,99
2022-10-25T10:48:21.424Z,98
2022-10-25T10:51:40.958Z,100
2022-10-25T10:53:20.669Z,100
2022-10-25T10:55:00.440Z,100
2022-10-25T10:56:40.227Z,100
2022-10-25T10:58:19.962Z,100
2022-10-25T10:59:59.875Z,100
2022-10-25T11:01:39.626Z,100
2022-10-25T11:03:19.392Z,99
2022-10-25T11:04:59.161Z,98
2022-10-25T11:06:38.927Z,100
2022-10-25T11:08:18.619Z,100
2022-10-25T11:11:38.155Z,98
2022-10-25T11:16:37.479Z,100
2022-10-25T11:18:17.283Z,99
2022-10-25T11:19:57.014Z,100
2022-10-25T11:21:36.669Z,99
2022-10-25T11:23:16.445Z,97
2022-10-25T11:24:56.183Z,99
2022-10-25T11:26:35.964Z,98
2022-10-25T11:28:15.757Z,98
2022-10-25T11:29:55.472Z,99
2022-10-25T11:31:35.231Z,100
2022-10-25T11:33:15.090Z,100
2022-10-25T11:34:54.818Z,100
2022-10-25T11:36:34.519Z,100
2022-10-25T11:38:14.430Z,100
2022-10-25T11:41:33.844Z,98
2022-10-25T11:43:13.706Z,99
2022-10-25T11:44:53.355Z,98
2022-10-25T11:46:33.112Z,100
2022-10-25T11:48:12.931Z,100
2022-10-25T11:49:52.650Z,99
2022-10-25T11:51:32.416Z,99
2022-10-25T11:53:12.260Z,98
2022-10-25T11:54:51.933Z,99
2022-10-25T11:56:31.810Z,99
2022-10-25T11:58:11.453Z,99
2022-10-25T12:01:31.048Z,98
2022-10-25T12:03:10.864Z,99
2022-10-25T12:06:30.322Z,100
2022-10-25T12:08:10.083Z,99
2022-10-25T12:09:49.803Z,98
2022-10-25T12:11:29.564Z,100
2022-10-25T12:13:09.331Z,98
2022-10-25T12:14:49.114Z,100
2022-10-25T12:16:28.904Z,98
2022-10-25T12:18:08.622Z,100
2022-10-25T12:19:48.446Z,99
2022-10-25T12:21:28.216Z,99
2022-10-25T12:24:47.733Z,100
2022-10-25T12:26:27.478Z,98
2022-10-25T12:28:07.242Z,99
2022-10-25T12:31:26.789Z,100
2022-10-25T12:33:06.574Z,99
2022-10-25T12:34:46.261Z,100
2022-10-25T12:36:26.032Z,99
2022-10-25T12:41:25.337Z,99
2022-10-25T12:43:05.148Z,98
2022-10-25T12:44:44.841Z,98
2022-10-25T12:46:24.614Z,99
2022-10-25T12:51:23.930Z,100
2022-10-25T12:54:43.523Z,99
2022-10-25T12:58:02.966Z,99
2022-10-25T13:01:22.505Z,99
2022-10-25T13:03:02.394Z,98
2022-10-25T13:04:42.007Z,97
2022-10-25T13:06:21.814Z,98
2022-10-25T13:08:01.541Z,100
2022-10-25T13:11:21.179Z,99
2022-10-25T13:16:20.449Z,100
2022-10-25T13:18:00.224Z,100
2022-10-25T13:19:39.947Z,100
2022-10-25T13:21:19.719Z,100
2022-10-25T13:26:19.011Z,100
2022-10-25T13:27:58.831Z,100
2022-10-25T13:31:18.319Z,100
2022-10-25T13:32:58.099Z,100
2022-10-25T13:34:37.840Z,100
2022-10-25T13:36:17.552Z,100
2022-10-25T13:37:57.392Z,100
2022-10-25T13:42:56.647Z,100
2022-10-25T13:44:36.358Z,99
2022-10-25T13:46:16.173Z,100
2022-10-25T13:47:55.978Z,100
2022-10-25T13:51:15.445Z,100
2022-10-25T13:52:55.239Z,99
2022-10-25T13:54:34.944Z,100
2022-10-25T13:56:14.811Z,98
2022-10-25T13:57:54.515Z,100
2022-10-25T14:01:14.016Z,98
2022-10-25T14:04:33.576Z,97
2022-10-25T14:06:13.374Z,100
2022-10-25T14:07:53.066Z,100
2022-10-25T14:11:12.576Z,98
2022-10-25T14:14:32.192Z,100
2022-10-25T14:17:51.690Z,100
2022-10-25T14:19:31.397Z,100
2022-10-25T14:21:11.217Z,100
2022-10-25T14:22:50.949Z,100
2022-10-25T14:24:30.809Z,100
2022-10-25T14:26:10.447Z,100
2022-10-25T14:27:50.227Z,100
2022-10-25T14:31:09.865Z,100
2022-10-25T14:32:49.509Z,100
2022-10-25T14:34:29.318Z,100
2022-10-25T14:36:09.041Z,100
2022-10-25T14:37:48.794Z,100
2022-10-25T14:41:08.334Z,100
2022-10-25T14:42:48.097Z,100
2022-10-25T14:44:27.869Z,99
2022-10-25T14:46:07.624Z,99
2022-10-25T14:51:06.917Z,100
2022-10-25T14:52:46.672Z,100
2022-10-25T14:54:26.450Z,99
2022-10-25T14:56:06.217Z,100
2022-10-25T14:57:46.037Z,98
2022-10-25T14:59:25.740Z,100
2022-10-25T15:01:05.494Z,99
2022-10-25T15:02:45.255Z,98
2022-10-25T15:04:25.091Z,100
2022-10-25T15:06:04.835Z,98
2022-10-25T15:07:44.546Z,97
2022-10-25T15:11:04.081Z,100
2022-10-25T15:12:43.857Z,100
2022-10-25T15:14:23.605Z,100
2022-10-25T15:16:03.515Z,98
2022-10-25T15:17:43.270Z,99
2022-10-25T15:21:02.770Z,85
2022-10-25T15:22:42.565Z,82
2022-10-25T15:26:02.029Z,81
2022-10-25T15:27:41.811Z,80
2022-10-25T15:31:01.338Z,77
2022-10-25T15:32:41.115Z,76
2022-10-25T15:34:20.831Z,75
2022-10-25T15:36:00.654Z,76
2022-10-25T15:37:40.381Z,75
2022-10-25T15:39:20.205Z,74
2022-10-25T15:40:59.831Z,75
2022-10-25T15:42:39.710Z,73
2022-10-25T15:44:19.348Z,73
2022-10-25T15:45:59.115Z,73
2022-10-25T15:47:38.920Z,72
2022-10-25T15:49:18.729Z,72
2022-10-25T15:50:58.450Z,72
2022-10-25T15:52:38.294Z,72
2022-10-25T15:54:18.043Z,72
2022-10-25T15:55:57.769Z,72
2022-10-25T15:57:37.619Z,71
2022-10-25T15:59:17.227Z,71
2022-10-25T16:00:57.060Z,71
2022-10-25T16:02:36.812Z,71
2022-10-25T16:04:16.632Z,70
2022-10-25T16:05:56.295Z,71
2022-10-25T16:07:36.150Z,71
2022-10-25T16:09:15.902Z,70
2022-10-25T16:10:55.585Z,70
2022-10-25T16:12:35.385Z,70
2022-10-25T16:14:15.140Z,70
2022-10-25T16:15:54.866Z,69
2022-10-25T16:17:34.655Z,70
2022-10-25T16:19:14.429Z,69
2022-10-25T16:20:54.241Z,70
2022-10-25T16:22:33.961Z,70
2022-10-25T16:24:13.777Z,69
2022-10-25T16:27:33.230Z,70
2022-10-25T16:30:52.811Z,70
2022-10-25T16:32:32.538Z,70
2022-10-25T16:34:12.342Z,69
2022-10-25T16:37:31.790Z,69
2022-10-25T16:40:51.348Z,69
2022-10-25T16:42:31.086Z,68
2022-10-25T16:44:10.921Z,69
2022-10-25T16:49:10.148Z,69
2022-10-25T16:50:49.907Z,69
2022-10-25T16:52:29.680Z,69
2022-10-25T16:54:09.453Z,69
2022-10-25T16:55:49.228Z,69
2022-10-25T17:02:28.315Z,69
2022-10-25T17:04:08.106Z,69
2022-10-25T17:05:47.897Z,68
2022-10-25T17:07:27.564Z,68
2022-10-25T17:10:47.106Z,68
2022-10-25T17:12:26.866Z,68
2022-10-25T17:14:06.608Z,68
2022-10-25T17:15:46.370Z,68
2022-10-25T17:17:26.165Z,68
2022-10-25T17:20:45.660Z,68
2022-10-25T17:22:25.517Z,68
2022-10-25T17:24:05.237Z,68
2022-10-25T17:25:44.954Z,68
2022-10-25T17:27:24.713Z,68
2022-10-25T17:30:44.301Z,68
2022-10-25T17:32:24.106Z,68
2022-10-25T17:34:03.782Z,67
2022-10-25T17:35:43.538Z,68
2022-10-25T17:37:23.298Z,67
2022-10-25T17:40:42.870Z,68
2022-10-25T17:42:22.652Z,68
2022-10-25T17:44:02.387Z,68
2022-10-25T17:45:42.122Z,68
2022-10-25T17:47:21.883Z,68
2022-10-25T17:50:41.422Z,68
2022-10-25T17:52:21.250Z,68
2022-10-25T17:54:00.999Z,67
2022-10-25T17:55:40.693Z,68
2022-10-25T17:57:20.457Z,68
2022-10-25T18:00:40.042Z,67
2022-10-25T18:02:19.775Z,67
2022-10-25T18:03:59.523Z,67
2022-10-25T18:05:39.286Z,68
2022-10-25T18:07:19.050Z,68
2022-10-25T18:08:58.840Z,68
2022-10-25T18:10:38.582Z,68
2022-10-25T18:12:18.340Z,67
2022-10-25T18:13:58.139Z,68
2022-10-25T18:15:37.905Z,67
2022-10-25T18:17:17.678Z,68
2022-10-25T18:20:37.168Z,68
2022-10-25T18:22:16.926Z,68
2022-10-25T18:23:56.686Z,68
2022-10-25T18:25:36.442Z,67
2022-10-25T18:27:16.305Z,68
2022-10-25T18:30:35.753Z,67
2022-10-25T18:32:15.515Z,67
2022-10-25T18:33:55.383Z,67
2022-10-25T18:37:14.823Z,67
2022-10-25T18:40:34.343Z,67
2022-10-25T18:42:14.085Z,67
2022-10-25T18:43:53.861Z,67
2022-10-25T18:45:33.669Z,67
2022-10-25T18:47:13.402Z,67
2022-10-25T18:50:32.932Z,67
2022-10-25T18:52:12.695Z,66
2022-10-25T18:53:52.433Z,67
2022-10-25T18:55:32.200Z,67
2022-10-25T18:57:11.964Z,67
2022-10-25T18:58:51.779Z,66
2022-10-25T19:00:31.520Z,67
2022-10-25T19:02:11.269Z,67
2022-10-25T19:03:51.030Z,67
2022-10-25T19:05:30.796Z,67
2022-10-25T19:07:10.592Z,67
2022-10-25T19:08:50.305Z,66
2022-10-25T19:10:30.116Z,67
2022-10-25T19:12:09.891Z,66
2022-10-25T19:13:49.620Z,67
2022-10-25T19:15:29.386Z,67
2022-10-25T19:17:09.133Z,66
2022-10-25T19:20:28.663Z,66
2022-10-25T19:23:48.221Z,66
2022-10-25T19:25:27.958Z,67
2022-10-25T19:27:07.717Z,66
2022-10-25T19:30:27.275Z,67
2022-10-25T19:32:07.002Z,67
2022-10-25T19:33:46.775Z,66
2022-10-25T19:35:26.562Z,67
2022-10-25T19:37:06.296Z,66
2022-10-25T19:38:46.074Z,67
2022-10-25T19:40:25.866Z,67
2022-10-25T19:42:05.691Z,67
2022-10-25T19:43:45.391Z,66
2022-10-25T19:45:25.116Z,67
2022-10-25T19:47:04.875Z,67
2022-10-25T19:50:24.417Z,66
2022-10-25T19:52:04.180Z,67
2022-10-25T19:53:43.936Z,66
2022-10-25T19:55:23.710Z,67
2022-10-25T20:00:23.072Z,66
2022-10-25T20:02:02.770Z,67
2022-10-25T20:03:42.593Z,66
2022-10-25T20:05:22.332Z,66
2022-10-25T20:07:02.048Z,67
2022-10-25T20:10:21.585Z,66
2022-10-25T20:12:01.376Z,66
2022-10-25T20:13:41.127Z,66
2022-10-25T20:15:20.868Z,66
2022-10-25T20:17:00.684Z,66
2022-10-25T20:18:40.402Z,66
2022-10-25T20:20:20.157Z,66
2022-10-25T20:21:59.942Z,66
2022-10-25T20:23:39.691Z,66
2022-10-25T20:25:19.450Z,66
2022-10-25T20:30:18.781Z,66
2022-10-25T20:31:58.514Z,65
2022-10-25T20:33:38.272Z,65
2022-10-25T20:35:18.099Z,66
2022-10-25T20:36:57.806Z,65
2022-10-25T20:40:17.323Z,65
2022-10-25T20:41:57.094Z,65
2022-10-25T20:43:36.869Z,65
2022-10-25T20:45:16.619Z,66
2022-10-25T20:46:56.385Z,65
2022-10-25T20:50:15.904Z,65
2022-10-25T20:51:55.669Z,65
2022-10-25T20:53:35.428Z,65
2022-10-25T20:55:15.266Z,65
2022-10-25T20:56:54.969Z,65
2022-10-25T20:58:34.728Z,66
2022-10-25T21:00:14.519Z,66
2022-10-25T21:01:54.304Z,65
2022-10-25T21:03:34.059Z,65
2022-10-25T21:05:13.779Z,66
2022-10-25T21:06:53.567Z,66
2022-10-25T21:10:13.064Z,66
2022-10-25T21:11:52.865Z,65
2022-10-25T21:13:32.597Z,65
2022-10-25T21:15:12.363Z,66
2022-10-25T21:16:52.127Z,65
2022-10-25T21:20:11.647Z,65
2022-10-25T21:21:51.416Z,66
2022-10-25T21:23:31.188Z,65
2022-10-25T21:25:10.991Z,66
2022-10-25T21:26:50.718Z,66
2022-10-25T21:30:10.237Z,65
2022-10-25T21:31:49.996Z,66
2022-10-25T21:33:29.877Z,65
2022-10-25T21:35:09.531Z,66
2022-10-25T21:36:49.300Z,66
2022-10-25T21:40:08.859Z,65
2022-10-25T21:41:48.633Z,65
2022-10-25T21:43:28.361Z,66
2022-10-25T21:45:08.114Z,65
2022-10-25T21:46:47.887Z,65
2022-10-25T21:48:27.649Z,65
2022-10-25T21:50:07.401Z,66
2022-10-25T21:51:47.188Z,65
2022-10-25T21:53:26.944Z,65
2022-10-25T21:55:06.730Z,65
2022-10-25T21:56:46.511Z,65
2022-10-25T22:00:05.992Z,65
2022-10-25T22:01:45.757Z,65
2022-10-25T22:03:25.509Z,65
2022-10-25T22:05:05.297Z,65
2022-10-25T22:06:45.042Z,65
2022-10-25T22:10:04.575Z,65
2022-10-25T22:11:44.369Z,65
2022-10-25T22:13:24.097Z,66
2022-10-25T22:15:03.855Z,65
2022-10-25T22:16:43.629Z,65
2022-10-25T22:20:03.167Z,66
2022-10-25T22:21:42.931Z,65
2022-10-25T22:23:22.676Z,65
2022-10-25T22:25:02.471Z,65
2022-10-25T22:26:42.222Z,65
2022-10-25T22:30:01.732Z,65
2022-10-25T22:31:41.511Z,64
2022-10-25T22:33:21.263Z,64
2022-10-25T22:35:01.044Z,65
2022-10-25T22:36:40.810Z,65
2022-10-25T22:40:00.333Z,65
2022-10-25T22:41:40.123Z,65
2022-10-25T22:43:19.847Z,64
2022-10-25T22:44:59.621Z,64
2022-10-25T22:46:39.389Z,65
2022-10-25T22:49:58.943Z,64
2022-10-25T22:51:38.668Z,65
2022-10-25T22:53:18.429Z,64
2022-10-25T22:54:58.237Z,64
2022-10-25T22:56:37.958Z,64
2022-10-25T22:58:17.725Z,64
2022-10-25T22:59:57.513Z,64
2022-10-25T23:01:37.276Z,65
2022-10-25T23:03:17.016Z,64
2022-10-25T23:04:56.778Z,64
2022-10-25T23:06:36.535Z,65
2022-10-25T23:09:56.061Z,65
2022-10-25T23:11:35.837Z,64
2022-10-25T23:13:15.638Z,64
2022-10-25T23:14:55.355Z,65
2022-10-25T23:16:35.161Z,63
2022-10-25T23:18:14.897Z,64
2022-10-25T23:21:34.410Z,64
2022-10-25T23:23:14.195Z,64
2022-10-25T23:24:53.948Z,64
2022-10-25T23:26:33.733Z,64
2022-10-25T23:29:53.234Z,64
2022-10-25T23:31:33.015Z,64
2022-10-25T23:33:12.766Z,65
2022-10-25T23:34:52.528Z,65
2022-10-25T23:36:32.287Z,63
2022-10-25T23:39:51.838Z,64
2022-10-25T23:41:31.623Z,65
2022-10-25T23:43:11.351Z,64
2022-10-25T23:44:51.116Z,64
2022-10-25T23:46:30.866Z,64
2022-10-25T23:49:50.397Z,64
2022-10-25T23:53:09.934Z,64
2022-10-25T23:54:49.694Z,63
2022-10-25T23:56:29.454Z,64
2022-10-25T23:59:48.979Z,63
